• Join FlightAware (Why Join?)
  • Login
  • US Flag 
08:06PM EDT


 

Airport Tracker/Info


-or-


 

Live Flight TrackerFlight Track Log ✈ SKW5646 ✈ 23-Apr-2013 ✈ KSBA - KSFO

Flight Track Log - Related Links

Times and Time Zones

All times are in EDT time to prevent confusion due to time zone crossing. See the SKW5646 flight status page for this flight to view local times or setup timezone preferences in your user account.

Time Position Orientation Groundspeed Altitude Reporting Facility
EDT Latitude Longitude Course Direction KTS MPH feet Rate Location/Type
03:21PM 34.4261 -119.8225 324° Northwest 150 173 24,000  Level Los Angeles Center
03:22PM 34.4019 -119.8197 175° South 165 190 1,900 -20,820 Descending Los Angeles Center
03:22PM 34.4019 -119.8397 270° West 168 193 2,500 720 Climbing Los Angeles Center
03:23PM 34.3900 -119.9164 259° West 226 260 3,000 960 Climbing Los Angeles Center
03:24PM 34.3819 -119.9969 263° West 239 275 4,600 1,320 Climbing Los Angeles Center
03:26PM 34.3767 -120.0708 265° West 229 264 5,800 1,080 Climbing Los Angeles Center
03:27PM 34.7206 -120.2638 324° Northwest  Level FlightAware Approximate
03:27PM 34.3747 -120.1519 268° West 227 261 6,900  Level Los Angeles Center
03:28PM 34.4272 -120.2061 320° Northwest 253 291 7,800 1,080 Climbing Los Angeles Center
03:29PM 34.4828 -120.2544 324° Northwest 246 283 9,200 1,260 Climbing Los Angeles Center
03:30PM 34.5500 -120.3067 327° Northwest 239 275 10,500 1,020 Climbing Los Angeles Center
03:31PM 34.6050 -120.3486 328° Northwest 243 280 11,400 720 Climbing Los Angeles Center
03:32PM 34.6633 -120.3956 327° Northwest 253 291 12,100 720 Climbing Los Angeles Center
03:33PM 34.7258 -120.4453 327° Northwest 255 293 13,000 780 Climbing Los Angeles Center
03:34PM 34.7842 -120.4931 326° Northwest 253 291 13,800 720 Climbing Los Angeles Center
03:35PM 34.8492 -120.5447 327° Northwest 252 290 14,600 720 Climbing Los Angeles Center
03:36PM 34.9092 -120.5939 326° Northwest 258 297 15,300 660 Climbing Los Angeles Center
03:37PM 34.9686 -120.6422 326° Northwest 258 297 16,000 660 Climbing Los Angeles Center
03:38PM 35.0289 -120.6897 327° Northwest 260 299 16,700 720 Climbing Los Angeles Center
03:39PM 35.1008 -120.7486 326° Northwest 259 298 17,500 720 Climbing Los Angeles Center
03:40PM 35.1611 -120.7975 326° Northwest 259 298 18,200 660 Climbing Los Angeles Center
03:41PM 35.2211 -120.8464 326° Northwest 260 299 18,900 720 Climbing Los Angeles Center
03:42PM 35.2792 -120.8947 326° Northwest 254 292 19,700 780 Climbing Los Angeles Center
03:43PM 35.3364 -120.9408 327° Northwest 248 285 20,600 840 Climbing Los Angeles Center
03:44PM 35.3772 -120.9756 325° Northwest 243 280 21,200 660 Climbing Oakland Center
03:45PM 35.4325 -121.0219 326° Northwest 238 274 21,800 600 Climbing Oakland Center
03:47PM 35.5461 -121.1142 327° Northwest 241 277 23,100 600 Climbing Oakland Center
03:48PM 35.6022 -121.1608 326° Northwest 243 280 23,700 420 Climbing Oakland Center
03:49PM 35.6583 -121.2078 326° Northwest 242 278 24,000 120 Climbing Oakland Center
03:50PM 35.7172 -121.2561 326° Northwest 253 291 24,000  Level Oakland Center
03:51PM 35.7914 -121.3164 327° Northwest 266 306 24,000  Level Oakland Center
03:52PM 35.8536 -121.3692 325° Northwest 270 311 24,000  Level Oakland Center
03:53PM 35.9175 -121.4222 326° Northwest 275 316 24,000  Level Oakland Center
03:54PM 35.9819 -121.4753 326° Northwest 277 319 24,000  Level Oakland Center
03:55PM 36.0453 -121.5314 324° Northwest 278 320 24,000  Level Oakland Center
03:56PM 36.1103 -121.5831 327° Northwest 277 319 24,000  Level Oakland Center
03:57PM 36.1733 -121.6381 325° Northwest 276 318 24,000 -120 Level Oakland Center
03:58PM 36.2450 -121.6778 336° Northwest 277 319 23,800 -780 Descending Oakland Center
03:59PM 36.3206 -121.7175 337° Northwest 292 336 22,500 -1,320 Descending Oakland Center
04:00PM 36.4003 -121.7564 339° North 304 350 21,200 -1,500 Descending Oakland Center
04:01PM 36.4500 -121.7833 336° Northwest 300 345 20,200 -1,680 Descending Northern Cal TRACON
04:02PM 36.5333 -121.8167 342° North 309 356 18,800 -1,500 Descending Northern Cal TRACON
04:03PM 36.6000 -121.8667 329° Northwest 312 359 17,400 -1,440 Descending Northern Cal TRACON
04:04PM 36.6833 -121.9167 334° Northwest 309 356 15,900 -1,380 Descending Northern Cal TRACON
04:05PM 36.7667 -121.9500 342° North 307 353 14,600 -1,260 Descending Northern Cal TRACON
04:06PM 36.8500 -122.0000 334° Northwest 309 356 13,400 -1,200 Descending Northern Cal TRACON
04:06PM 36.8964 -122.0231 338° Northwest 306 352 12,700 -1,200 Descending Oakland Center
04:07PM 36.9756 -122.0647 337° Northwest 309 356 11,500 -1,200 Descending Oakland Center
04:08PM 37.0542 -122.1053 338° Northwest 308 354 10,300 -780 Descending Oakland Center
04:09PM 37.1311 -122.1453 337° Northwest 302 348 10,000 -420 Descending Oakland Center
04:10PM 37.2017 -122.1797 339° North 276 318 9,500 -780 Descending Oakland Center
04:11PM 37.2514 -122.2292 322° Northwest 238 274 8,500 -1,080 Descending Oakland Center
04:12PM 37.3058 -122.2631 334° Northwest 244 281 7,400 -1,020 Descending Oakland Center
04:13PM 37.3636 -122.2331 22° Northeast 224 258 6,500 -960 Descending Oakland Center
04:14PM 37.4161 -122.2069 22° Northeast 206 237 5,500 -840 Descending Oakland Center
04:15PM 37.4750 -122.1986 North 216 249 4,900 -1,080 Descending Oakland Center
04:16PM 37.5394 -122.2108 351° North 211 243 3,300 -1,620 Descending Oakland Center